Time;durP1;ratioP1;P1;durP2;ratioP2;P2;SDS_P1;SDS_P2;PMS_P1;PMS_P2;Temp;Humidity;BMP_temperature;BMP_pressure;BME280_temperature;BME280_humidity;BME280_pressure;Samples;Min_cycle;Max_cycle;Signal;HPM_P1;HPM_P2
2021/12/23 05:02:35;;;;;;;35.07;27.73;;;-2.20;99.90;;;;;;5000259;23;20483;-71
2021/12/23 05:05:01;;;;;;;37.97;30.10;;;-2.20;99.90;;;;;;4977161;28;20550;-71
2021/12/23 05:07:28;;;;;;;37.83;29.37;;;-2.20;99.90;;;;;;4976755;28;20452;-71
2021/12/23 05:09:55;;;;;;;36.63;28.17;;;-2.20;99.90;;;;;;4976241;28;20466;-70
2021/12/23 05:12:22;;;;;;;36.17;28.60;;;-2.20;99.90;;;;;;4976393;28;20486;-72
2021/12/23 05:14:49;;;;;;;35.70;27.70;;;-2.20;99.90;;;;;;4976355;28;20439;-72
2021/12/23 05:17:15;;;;;;;40.80;30.80;;;-2.20;99.90;;;;;;4976736;28;20470;-72
2021/12/23 05:19:43;;;;;;;33.10;28.03;;;-2.20;99.90;;;;;;4977390;28;20459;-71
2021/12/23 05:22:10;;;;;;;37.47;29.63;;;-2.20;99.90;;;;;;4976662;28;20579;-71
2021/12/23 05:24:37;;;;;;;36.93;29.90;;;-2.10;99.90;;;;;;4975792;28;20958;-72
2021/12/23 05:27:05;;;;;;;36.30;28.77;;;-2.10;99.90;;;;;;4974975;28;20482;-72
2021/12/23 05:29:32;;;;;;;38.73;28.07;;;-2.00;99.90;;;;;;4975159;28;20463;-72
2021/12/23 05:31:58;;;;;;;37.47;29.30;;;-2.00;99.90;;;;;;4975432;28;20478;-73
2021/12/23 05:34:25;;;;;;;38.30;27.97;;;-2.00;99.90;;;;;;4978921;28;20463;-72
2021/12/23 05:36:53;;;;;;;42.93;29.27;;;-2.00;99.90;;;;;;4978262;28;20458;-72
2021/12/23 05:39:20;;;;;;;40.50;29.50;;;-2.00;99.90;;;;;;4978485;28;20466;-72
2021/12/23 05:41:46;;;;;;;38.90;28.57;;;-2.00;99.90;;;;;;4979075;28;20874;-72
2021/12/23 05:44:13;;;;;;;37.63;29.67;;;-2.00;99.90;;;;;;4978733;28;20463;-73
2021/12/23 05:46:40;;;;;;;41.77;30.60;;;-2.10;99.90;;;;;;4978938;28;20578;-71
2021/12/23 05:49:07;;;;;;;42.70;29.13;;;-1.90;99.90;;;;;;4978243;28;20470;-71
2021/12/23 05:51:34;;;;;;;39.30;28.60;;;-1.40;99.90;;;;;;4978695;28;20555;-74
2021/12/23 05:54:02;;;;;;;37.80;27.63;;;-1.20;99.90;;;;;;4978820;28;20466;-72
2021/12/23 05:56:29;;;;;;;38.10;26.50;;;-1.40;99.90;;;;;;4978652;28;20510;-73
2021/12/23 05:58:56;;;;;;;35.27;26.70;;;-1.50;99.90;;;;;;4978342;28;20455;-74
2021/12/23 06:01:23;;;;;;;38.20;27.57;;;-1.60;99.90;;;;;;4978139;28;20486;-74
2021/12/23 06:03:49;;;;;;;35.87;28.57;;;-1.70;99.90;;;;;;4978578;28;20455;-73
2021/12/23 06:06:16;;;;;;;36.73;28.67;;;-1.90;99.90;;;;;;4978785;28;20555;-73
2021/12/23 06:08:43;;;;;;;37.90;28.50;;;-2.00;99.90;;;;;;4978611;28;20478;-73
2021/12/23 06:11:12;;;;;;;36.43;29.43;;;-2.10;99.90;;;;;;4978604;28;20486;-73
2021/12/23 06:13:38;;;;;;;41.90;29.57;;;-2.10;99.90;;;;;;4978256;28;20459;-74
2021/12/23 06:16:05;;;;;;;35.90;28.37;;;-2.20;99.90;;;;;;4978308;28;20451;-73
2021/12/23 06:18:32;;;;;;;39.70;29.27;;;-2.20;99.90;;;;;;4978564;28;20443;-74
2021/12/23 06:20:59;;;;;;;35.73;28.50;;;-2.20;99.90;;;;;;4978641;28;20482;-74
2021/12/23 06:23:26;;;;;;;37.50;29.70;;;-2.30;99.90;;;;;;4978604;28;20458;-73
2021/12/23 06:25:53;;;;;;;38.07;28.40;;;-2.30;99.90;;;;;;4978006;28;20982;-73
2021/12/23 06:28:21;;;;;;;39.00;29.60;;;-2.30;99.90;;;;;;4978607;28;20458;-75
2021/12/23 06:30:48;;;;;;;37.33;28.97;;;-2.30;99.90;;;;;;4979397;28;20471;-74
2021/12/23 06:33:15;;;;;;;41.27;30.10;;;-2.40;99.90;;;;;;4982671;28;20451;-74
2021/12/23 06:35:42;;;;;;;38.97;30.30;;;-2.40;99.90;;;;;;4979081;28;20474;-74
2021/12/23 06:38:12;;;;;;;35.30;27.83;;;-2.40;99.90;;;;;;4978206;28;20455;-73
2021/12/23 06:40:40;;;;;;;37.57;27.80;;;-2.30;99.90;;;;;;4978539;28;20474;-74
2021/12/23 06:43:07;;;;;;;37.00;28.37;;;-2.30;99.90;;;;;;4979686;28;20459;-74
2021/12/23 06:45:36;;;;;;;39.00;30.33;;;-2.30;99.90;;;;;;4978076;28;20463;-74
2021/12/23 06:48:03;;;;;;;36.73;28.40;;;-2.30;99.90;;;;;;4978272;28;20470;-74
2021/12/23 06:50:29;;;;;;;32.80;26.13;;;-2.30;99.90;;;;;;4978803;28;20466;-74
2021/12/23 06:52:58;;;;;;;37.67;27.97;;;-2.20;99.90;;;;;;4978594;28;20443;-74
2021/12/23 06:55:25;;;;;;;36.87;28.00;;;-2.10;99.90;;;;;;4978094;28;20487;-74
2021/12/23 06:57:55;;;;;;;36.77;28.83;;;-2.10;99.90;;;;;;4978184;28;20455;-74
2021/12/23 07:00:22;;;;;;;37.37;27.87;;;-2.20;99.90;;;;;;4977908;28;20440;-74
2021/12/23 07:02:51;;;;;;;38.57;28.60;;;-2.10;99.90;;;;;;4978201;28;20447;-74
2021/12/23 07:05:18;;;;;;;37.73;28.63;;;-2.20;99.90;;;;;;4977314;28;20800;-74
2021/12/23 07:07:54;;;;;;;38.63;29.33;;;-2.20;99.90;;;;;;4977784;28;20479;-74
2021/12/23 07:10:22;;;;;;;37.50;29.23;;;-2.30;99.90;;;;;;4976985;28;20526;-73
2021/12/23 07:12:49;;;;;;;39.43;29.77;;;-2.30;99.90;;;;;;4977974;28;20466;-73
2021/12/23 07:15:16;;;;;;;35.70;28.83;;;-2.30;99.90;;;;;;4977693;28;20489;-74
2021/12/23 07:17:43;;;;;;;42.27;29.30;;;-2.30;99.90;;;;;;4978985;28;20462;-74
2021/12/23 07:20:11;;;;;;;37.70;28.53;;;-2.30;99.90;;;;;;4979533;28;20447;-74
2021/12/23 07:22:38;;;;;;;37.80;29.00;;;-2.30;99.90;;;;;;4978736;28;20439;-73
2021/12/23 07:25:06;;;;;;;36.80;27.93;;;-2.20;99.90;;;;;;4982989;28;20443;-73
2021/12/23 07:27:33;;;;;;;36.90;28.40;;;-2.20;99.90;;;;;;4979365;28;21109;-73
2021/12/23 07:30:00;;;;;;;36.23;28.10;;;-2.20;99.90;;;;;;4977595;28;20455;-73
2021/12/23 07:32:27;;;;;;;35.60;26.77;;;-2.20;99.90;;;;;;4977441;28;20577;-72
2021/12/23 07:34:53;;;;;;;37.77;28.37;;;-2.20;99.90;;;;;;4978185;28;20459;-73
2021/12/23 07:37:22;;;;;;;33.73;27.33;;;-2.10;99.90;;;;;;4977330;28;20575;-73
2021/12/23 07:39:49;;;;;;;38.67;28.40;;;-2.10;99.90;;;;;;4976892;28;20443;-73
2021/12/23 07:42:16;;;;;;;36.23;27.67;;;-2.10;99.90;;;;;;4978901;28;20471;-74
2021/12/23 07:44:46;;;;;;;36.80;28.20;;;-2.10;99.90;;;;;;4979071;28;20459;-74
2021/12/23 07:47:14;;;;;;;36.10;27.87;;;-2.00;99.90;;;;;;4978013;28;20850;-74
2021/12/23 07:49:41;;;;;;;38.20;29.20;;;-2.00;99.90;;;;;;4976796;28;20455;-73
2021/12/23 07:52:09;;;;;;;37.00;27.07;;;-1.90;99.90;;;;;;4976384;28;20474;-73
2021/12/23 07:54:38;;;;;;;34.93;26.57;;;-1.80;99.90;;;;;;4975869;28;20447;-74
2021/12/23 07:57:05;;;;;;;35.10;26.40;;;-1.80;99.90;;;;;;4976315;28;20447;-74
2021/12/23 07:59:32;;;;;;;38.50;26.77;;;-1.70;99.90;;;;;;4976698;28;20455;-74
2021/12/23 08:02:00;;;;;;;37.10;26.47;;;-1.70;99.90;;;;;;4980391;28;20573;-74
2021/12/23 08:04:27;;;;;;;41.23;28.50;;;-1.70;99.90;;;;;;4977501;28;20459;-74
2021/12/23 08:06:57;;;;;;;37.93;27.47;;;-1.70;99.90;;;;;;4976405;28;20514;-73
2021/12/23 08:09:26;;;;;;;39.07;26.40;;;-1.70;99.90;;;;;;4979889;28;20458;-74
2021/12/23 08:11:54;;;;;;;37.10;25.87;;;-1.70;99.90;;;;;;4976543;28;20578;-74
2021/12/23 08:14:21;;;;;;;39.97;28.70;;;-1.60;99.90;;;;;;4979191;28;20462;-73
2021/12/23 08:16:48;;;;;;;39.73;26.80;;;-1.60;99.90;;;;;;4980121;28;20455;-73
2021/12/23 08:19:15;;;;;;;36.20;27.10;;;-1.50;99.90;;;;;;4978590;28;20451;-73
2021/12/23 08:21:42;;;;;;;41.27;28.27;;;-1.40;99.90;;;;;;4979066;28;20477;-73
2021/12/23 08:24:08;;;;;;;36.47;25.20;;;-1.20;99.90;;;;;;4978175;28;20455;-74
2021/12/23 08:26:42;;;;;;;37.27;24.80;;;-1.00;99.90;;;;;;4976346;28;20479;-74
2021/12/23 08:29:17;;;;;;;38.23;26.43;;;-0.80;99.90;;;;;;4978793;28;20443;-74
2021/12/23 08:31:44;;;;;;;34.07;24.37;;;-0.50;99.90;;;;;;4976189;28;20479;-72
2021/12/23 08:34:11;;;;;;;33.73;23.13;;;0.00;99.90;;;;;;4976369;28;20486;-73
2021/12/23 08:36:37;;;;;;;38.07;25.73;;;0.30;99.90;;;;;;4975801;28;20455;-73
2021/12/23 08:39:04;;;;;;;31.10;23.40;;;0.40;99.90;;;;;;4975826;28;20463;-73
2021/12/23 08:41:31;;;;;;;35.83;24.00;;;0.40;99.90;;;;;;4975755;28;20821;-73
2021/12/23 08:43:58;;;;;;;34.67;24.13;;;0.30;99.90;;;;;;4976215;28;20439;-74
2021/12/23 08:46:26;;;;;;;35.37;25.00;;;0.20;99.90;;;;;;4975941;28;20466;-73
2021/12/23 08:48:53;;;;;;;32.80;23.50;;;0.20;99.90;;;;;;4976843;28;20466;-72
2021/12/23 08:51:19;;;;;;;35.73;23.47;;;0.20;99.90;;;;;;4976406;28;20483;-72
2021/12/23 08:53:46;;;;;;;35.30;24.50;;;0.20;99.90;;;;;;4976169;28;20557;-72
2021/12/23 08:56:13;;;;;;;39.50;23.43;;;0.20;99.90;;;;;;4976770;28;20557;-73
2021/12/23 08:58:40;;;;;;;36.93;25.47;;;0.30;99.90;;;;;;4975989;28;20455;-74
2021/12/23 09:01:07;;;;;;;33.00;23.93;;;0.30;99.90;;;;;;4974901;28;20485;-73
2021/12/23 09:03:35;;;;;;;34.20;23.23;;;0.30;99.90;;;;;;4975792;28;20447;-73
2021/12/23 09:06:04;;;;;;;34.63;24.00;;;0.40;99.90;;;;;;4975684;28;20868;-74
2021/12/23 09:08:31;;;;;;;33.70;22.90;;;0.50;99.90;;;;;;4978796;28;20482;-73
2021/12/23 09:11:00;;;;;;;32.53;23.57;;;0.50;99.90;;;;;;4979894;28;20479;-73
2021/12/23 09:13:27;;;;;;;32.00;22.03;;;0.40;99.90;;;;;;4979674;28;20615;-72
2021/12/23 09:15:55;;;;;;;31.43;23.00;;;0.50;99.90;;;;;;4979726;28;20546;-73
2021/12/23 09:18:22;;;;;;;32.27;23.20;;;0.60;99.90;;;;;;4979204;28;20455;-73
2021/12/23 09:20:50;;;;;;;31.00;22.00;;;0.60;99.90;;;;;;4979511;28;20475;-72
2021/12/23 09:23:18;;;;;;;31.83;22.73;;;0.60;99.90;;;;;;4979680;28;20466;-74
2021/12/23 09:25:46;;;;;;;35.43;23.97;;;0.80;99.90;;;;;;4979194;28;20495;-73
2021/12/23 09:28:26;;;;;;;31.70;22.87;;;0.80;99.90;;;;;;4979543;28;20529;-74
2021/12/23 09:33:39;;;;;;;32.90;23.83;;;0.80;99.90;;;;;;4990651;28;20937;-73
2021/12/23 09:36:08;;;;;;;33.40;23.50;;;0.80;99.90;;;;;;4979907;28;20534;-73
2021/12/23 09:38:35;;;;;;;36.77;24.50;;;0.80;99.90;;;;;;4980306;28;20934;-73
2021/12/23 09:41:05;;;;;;;31.30;23.33;;;0.90;99.90;;;;;;4979627;28;20554;-72
2021/12/23 09:43:34;;;;;;;35.80;24.50;;;0.90;99.90;;;;;;4980038;28;20545;-74
2021/12/23 09:46:01;;;;;;;33.17;23.47;;;1.00;99.90;;;;;;4979756;28;20833;-73
2021/12/23 09:48:29;;;;;;;32.03;21.87;;;1.00;99.90;;;;;;4979547;28;20463;-73
2021/12/23 09:50:59;;;;;;;31.80;23.13;;;1.00;99.90;;;;;;4979031;28;20597;-73
2021/12/23 09:53:27;;;;;;;31.60;22.87;;;1.10;99.90;;;;;;4979749;28;20465;-73
2021/12/23 09:55:57;;;;;;;31.07;22.87;;;1.00;99.90;;;;;;4979236;28;20965;-73
2021/12/23 09:58:24;;;;;;;33.47;22.80;;;1.00;99.90;;;;;;4979306;28;20454;-72
2021/12/23 10:00:52;;;;;;;30.70;21.33;;;1.00;99.90;;;;;;4978693;28;20510;-73
2021/12/23 10:03:23;;;;;;;32.17;21.93;;;1.10;99.90;;;;;;4979246;28;20463;-72
2021/12/23 10:05:51;;;;;;;36.20;21.93;;;1.20;99.90;;;;;;4978916;28;20443;-72
2021/12/23 10:08:17;;;;;;;30.27;22.20;;;1.30;99.90;;;;;;4978944;28;20482;-72
2021/12/23 10:10:51;;;;;;;29.47;22.43;;;1.40;99.90;;;;;;4979085;28;20478;-72
2021/12/23 10:32:53;;;;;;;33.37;21.90;;;2.10;99.90;;;;;;4980521;28;20466;-73
2021/12/23 10:38:09;;;;;;;31.60;22.50;;;2.40;99.90;;;;;;4979458;28;20431;-73
2021/12/23 10:40:41;;;;;;;34.60;21.30;;;2.40;99.90;;;;;;4978701;28;20475;-74
2021/12/23 10:43:11;;;;;;;31.90;22.43;;;2.30;99.90;;;;;;4979331;28;20462;-72
2021/12/23 10:45:45;;;;;;;28.67;21.10;;;2.40;99.90;;;;;;4980792;28;20454;-74
2021/12/23 10:48:15;;;;;;;26.80;20.20;;;2.50;99.90;;;;;;4978869;28;20474;-74
2021/12/23 10:50:45;;;;;;;28.00;19.50;;;2.60;99.90;;;;;;4978811;28;20475;-74
2021/12/23 10:53:26;;;;;;;29.00;21.50;;;2.70;99.90;;;;;;4979186;28;20451;-73
2021/12/23 10:59:04;;;;;;;29.23;21.33;;;2.60;99.90;;;;;;4978612;28;20419;-74
2021/12/23 11:01:32;;;;;;;31.57;21.57;;;2.70;99.90;;;;;;4977949;28;20486;-73
2021/12/23 11:04:02;;;;;;;29.03;20.70;;;2.70;99.90;;;;;;4980504;28;20455;-73
2021/12/23 11:06:33;;;;;;;29.10;20.47;;;2.80;99.90;;;;;;4978960;28;20455;-74
2021/12/23 11:09:15;;;;;;;31.90;20.90;;;2.90;99.90;;;;;;4978371;28;20467;-73
2021/12/23 11:12:14;;;;;;;31.20;19.40;;;3.00;99.90;;;;;;4978949;28;20482;-74
2021/12/23 11:40:06;;;;;;;26.73;18.80;;;3.80;99.90;;;;;;4977527;28;20427;-73
2021/12/23 11:42:40;;;;;;;26.03;18.63;;;3.90;99.90;;;;;;4978011;28;20471;-74
2021/12/23 11:45:08;;;;;;;26.53;17.40;;;3.80;99.90;;;;;;4977615;28;20857;-74
2021/12/23 11:47:38;;;;;;;25.37;18.60;;;4.00;99.90;;;;;;4977379;28;20490;-73
2021/12/23 11:50:06;;;;;;;29.97;18.10;;;4.00;99.90;;;;;;4977787;28;20483;-73
2021/12/23 11:52:34;;;;;;;23.97;16.10;;;4.10;99.90;;;;;;4977332;28;20479;-73
2021/12/23 11:55:01;;;;;;;28.30;17.80;;;4.20;99.90;;;;;;4977438;28;20455;-73
2021/12/23 11:57:32;;;;;;;25.93;18.30;;;4.40;99.90;;;;;;4978125;28;20451;-71
2021/12/23 12:00:10;;;;;;;26.77;18.03;;;4.50;99.90;;;;;;4977542;28;20455;-72
2021/12/23 12:02:39;;;;;;;29.50;19.27;;;4.50;99.90;;;;;;4977790;28;20475;-72
2021/12/23 12:05:09;;;;;;;25.30;17.57;;;4.50;99.90;;;;;;4977021;28;20458;-71
2021/12/23 12:07:40;;;;;;;28.80;19.77;;;4.60;99.90;;;;;;4976743;28;20837;-72
2021/12/23 12:10:10;;;;;;;24.67;18.20;;;4.80;99.90;;;;;;4976858;28;20447;-72
2021/12/23 12:12:57;;;;;;;24.67;17.77;;;4.90;99.90;;;;;;4976600;28;20849;-71
2021/12/23 12:15:36;;;;;;;25.40;17.23;;;5.00;99.90;;;;;;4976830;28;20455;-73
2021/12/23 12:18:06;;;;;;;23.23;17.57;;;5.10;99.90;;;;;;4977402;28;20439;-71
2021/12/23 12:20:37;;;;;;;26.30;17.73;;;5.20;99.90;;;;;;4976777;28;20442;-70
2021/12/23 12:23:08;;;;;;;26.43;18.67;;;5.20;99.90;;;;;;4976435;28;20448;-70
2021/12/23 12:26:02;;;;;;;22.50;16.70;;;5.20;99.90;;;;;;4976161;28;20448;-70
2021/12/23 12:28:36;;;;;;;22.07;16.30;;;5.20;99.90;;;;;;4980731;28;20471;-71
2021/12/23 12:31:06;;;;;;;25.73;16.90;;;5.20;99.90;;;;;;4977659;28;20490;-71
2021/12/23 12:33:59;;;;;;;27.00;18.90;;;5.20;99.90;;;;;;4976405;28;21033;-70
2021/12/23 12:36:27;;;;;;;26.20;19.33;;;5.10;99.90;;;;;;4977049;28;20941;-70
2021/12/23 12:38:57;;;;;;;23.00;17.70;;;5.10;99.90;;;;;;4979056;28;20435;-70
2021/12/23 12:41:29;;;;;;;24.70;17.80;;;5.20;99.90;;;;;;4976356;28;20475;-70
2021/12/23 12:44:05;;;;;;;29.70;17.83;;;5.30;99.90;;;;;;4976304;28;20463;-70
2021/12/23 12:47:03;;;;;;;28.30;19.50;;;5.40;99.90;;;;;;4976369;28;20494;-70
2021/12/23 12:49:35;;;;;;;24.87;16.13;;;5.40;99.90;;;;;;4976125;28;20468;-72
2021/12/23 12:52:21;;;;;;;22.93;17.03;;;5.50;99.90;;;;;;4976043;28;20485;-70
2021/12/23 12:54:51;;;;;;;25.30;16.80;;;5.40;99.90;;;;;;4975878;28;20466;-71
2021/12/23 12:57:20;;;;;;;24.53;16.63;;;5.40;99.90;;;;;;4976027;28;20925;-70
2021/12/23 12:59:49;;;;;;;19.80;16.30;;;5.40;99.90;;;;;;4976227;28;20455;-72
2021/12/23 13:02:26;;;;;;;26.57;17.07;;;5.40;99.90;;;;;;4975581;28;20479;-70
2021/12/23 13:05:01;;;;;;;26.10;17.57;;;5.40;99.90;;;;;;4975857;28;20800;-70
2021/12/23 13:07:31;;;;;;;24.10;16.73;;;5.40;99.90;;;;;;4976554;28;20438;-70
2021/12/23 13:10:04;;;;;;;25.80;18.17;;;5.30;99.90;;;;;;4977749;28;20465;-70
2021/12/23 13:12:33;;;;;;;22.93;17.57;;;5.30;99.90;;;;;;4976250;28;20481;-70
2021/12/23 13:15:19;;;;;;;20.53;16.57;;;5.30;99.90;;;;;;4975927;28;20487;-70
2021/12/23 13:17:55;;;;;;;23.73;17.07;;;5.30;99.90;;;;;;4976033;28;20440;-69
2021/12/23 13:20:40;;;;;;;24.60;15.70;;;5.30;99.90;;;;;;4976210;28;20510;-70
2021/12/23 13:23:12;;;;;;;21.47;16.60;;;5.30;99.90;;;;;;4975655;28;20446;-69
2021/12/23 13:25:50;;;;;;;20.60;15.87;;;5.40;99.90;;;;;;4975906;28;20446;-71
2021/12/23 13:28:23;;;;;;;21.73;16.67;;;5.40;99.90;;;;;;4975647;28;20470;-69
2021/12/23 13:30:50;;;;;;;22.40;15.90;;;5.30;99.90;;;;;;4976242;28;20471;-70
2021/12/23 13:33:17;;;;;;;21.20;15.70;;;5.30;99.90;;;;;;4975296;28;20974;-70
2021/12/23 13:35:45;;;;;;;20.47;17.13;;;5.30;99.90;;;;;;4975594;28;20467;-70
2021/12/23 13:38:28;;;;;;;21.87;16.13;;;5.30;99.90;;;;;;4976098;28;20848;-70
2021/12/23 13:40:54;;;;;;;22.20;15.90;;;5.20;99.90;;;;;;4975757;28;20502;-70
2021/12/23 13:43:31;;;;;;;22.73;16.70;;;5.30;99.90;;;;;;4975857;28;20481;-69
2021/12/23 13:46:04;;;;;;;24.43;16.63;;;5.30;99.90;;;;;;4975871;28;20446;-70
2021/12/23 13:48:31;;;;;;;22.87;15.10;;;5.30;99.90;;;;;;4975412;28;20535;-71
2021/12/23 13:51:00;;;;;;;21.10;16.47;;;5.30;99.90;;;;;;4976010;28;20478;-70
2021/12/23 13:53:27;;;;;;;22.07;15.67;;;5.30;99.90;;;;;;4976996;28;20459;-70
2021/12/23 13:55:53;;;;;;;25.57;14.90;;;5.40;99.90;;;;;;4979200;28;20454;-73
2021/12/23 13:58:23;;;;;;;19.77;14.50;;;5.50;99.90;;;;;;4979060;28;20467;-73
2021/12/23 14:00:50;;;;;;;23.53;14.90;;;6.00;99.90;;;;;;4978660;28;20491;-73
2021/12/23 14:03:18;;;;;;;19.10;14.83;;;6.40;99.90;;;;;;4979100;28;20462;-70
2021/12/23 14:05:49;;;;;;;24.33;15.17;;;6.60;99.90;;;;;;4979215;28;20981;-70
2021/12/23 14:08:18;;;;;;;22.20;15.60;;;6.70;99.90;;;;;;4981265;28;20490;-74
2021/12/23 14:10:46;;;;;;;23.37;16.70;;;6.70;99.90;;;;;;4982939;28;20525;-71
2021/12/23 14:13:17;;;;;;;21.67;16.17;;;6.60;99.90;;;;;;4981087;28;20455;-71
2021/12/23 14:15:46;;;;;;;20.00;14.77;;;6.60;99.90;;;;;;4979176;28;20451;-71
2021/12/23 14:18:23;;;;;;;24.50;16.87;;;6.50;99.90;;;;;;4979017;28;20451;-69
2021/12/23 14:23:42;;;;;;;23.33;14.90;;;6.50;99.90;;;;;;4978553;28;20463;-70
2021/12/23 14:26:11;;;;;;;21.90;16.73;;;6.40;99.90;;;;;;4978395;28;20471;-69
2021/12/23 14:28:41;;;;;;;20.60;16.40;;;6.40;99.90;;;;;;4978482;28;20483;-73
2021/12/23 14:31:18;;;;;;;18.70;15.03;;;6.30;99.90;;;;;;4978081;28;21064;-72
2021/12/23 14:33:47;;;;;;;28.93;15.20;;;6.20;99.90;;;;;;4978577;28;20442;-72
2021/12/23 14:36:18;;;;;;;20.47;15.83;;;6.20;99.90;;;;;;4978440;28;20459;-71
2021/12/23 14:38:54;;;;;;;20.07;15.90;;;6.10;99.90;;;;;;4977953;28;20440;-72
2021/12/23 14:41:22;;;;;;;23.40;17.07;;;6.10;99.90;;;;;;4978815;28;20826;-71
2021/12/23 14:43:55;;;;;;;18.77;15.27;;;6.10;99.90;;;;;;4978170;28;20455;-72
2021/12/23 14:46:38;;;;;;;18.53;15.00;;;6.20;99.90;;;;;;4978103;28;20443;-72
2021/12/23 14:49:30;;;;;;;19.63;15.93;;;6.20;99.90;;;;;;4978138;28;20558;-73
2021/12/23 14:52:10;;;;;;;26.20;16.40;;;6.20;99.90;;;;;;4977529;28;21010;-72
2021/12/23 14:54:48;;;;;;;21.00;15.60;;;6.20;99.90;;;;;;4977970;28;20511;-71
2021/12/23 14:57:17;;;;;;;24.97;15.20;;;6.20;99.90;;;;;;4977799;28;20454;-71
2021/12/23 14:59:46;;;;;;;20.23;15.00;;;6.20;99.90;;;;;;4978304;28;20462;-70
2021/12/23 15:02:13;;;;;;;18.63;13.83;;;6.20;99.90;;;;;;4977315;28;20920;-70
2021/12/23 15:05:06;;;;;;;19.57;13.60;;;6.20;99.90;;;;;;4978304;28;20477;-69
2021/12/23 15:07:51;;;;;;;24.47;15.53;;;6.20;99.90;;;;;;4978996;28;20443;-69
2021/12/23 15:10:35;;;;;;;24.53;15.50;;;6.20;99.90;;;;;;4977774;28;20490;-71
2021/12/23 15:13:17;;;;;;;23.20;16.00;;;6.20;99.90;;;;;;4977317;28;20803;-67
2021/12/23 15:15:44;;;;;;;22.50;15.17;;;6.20;99.90;;;;;;4978391;28;20443;-70
2021/12/23 15:18:29;;;;;;;22.40;15.93;;;6.20;99.90;;;;;;4978857;28;20461;-70
2021/12/23 15:20:57;;;;;;;19.90;13.90;;;6.20;99.90;;;;;;4978118;28;20479;-70
2021/12/23 15:23:39;;;;;;;19.53;14.17;;;6.20;99.90;;;;;;4978310;28;20831;-68
2021/12/23 15:26:25;;;;;;;19.63;14.30;;;6.20;99.90;;;;;;4978432;28;20446;-69
2021/12/23 15:29:09;;;;;;;19.10;14.13;;;6.10;99.90;;;;;;4977484;28;20486;-67
2021/12/23 15:31:37;;;;;;;15.87;13.20;;;6.10;99.90;;;;;;4975183;28;20490;-67
2021/12/23 15:34:08;;;;;;;17.50;13.53;;;6.10;99.90;;;;;;4977012;28;20447;-68
2021/12/23 15:36:35;;;;;;;15.83;13.40;;;6.20;99.90;;;;;;4976562;28;20435;-70
2021/12/23 15:39:13;;;;;;;25.33;14.13;;;6.20;99.90;;;;;;4977513;28;20525;-68
2021/12/23 15:41:41;;;;;;;20.10;13.97;;;6.20;99.90;;;;;;4977502;28;20498;-68
2021/12/23 15:44:08;;;;;;;21.30;14.80;;;6.20;99.90;;;;;;4977794;28;20966;-71
2021/12/23 15:46:36;;;;;;;19.03;13.13;;;6.20;99.90;;;;;;4977050;28;20455;-70
2021/12/23 15:49:03;;;;;;;19.80;13.00;;;6.20;99.90;;;;;;4977463;28;20475;-69
2021/12/23 15:51:30;;;;;;;22.33;14.30;;;6.20;99.90;;;;;;4977384;28;20478;-69
2021/12/23 15:53:57;;;;;;;16.90;13.50;;;6.20;99.90;;;;;;4976522;28;20466;-69
2021/12/23 15:56:24;;;;;;;17.63;13.93;;;6.30;99.90;;;;;;4976962;28;20549;-69
2021/12/23 15:58:52;;;;;;;18.67;12.30;;;6.30;99.90;;;;;;4976438;28;20459;-68
2021/12/23 16:01:19;;;;;;;18.67;12.67;;;6.40;99.90;;;;;;4976306;28;20490;-68
2021/12/23 16:03:48;;;;;;;20.80;12.77;;;6.50;99.90;;;;;;4976485;28;20445;-70
2021/12/23 16:08:59;;;;;;;21.00;12.73;;;6.60;99.90;;;;;;4976560;28;21033;-69
2021/12/23 16:11:26;;;;;;;16.70;13.87;;;6.60;99.90;;;;;;4976519;28;20486;-68
2021/12/23 16:13:54;;;;;;;17.40;13.13;;;6.60;99.90;;;;;;4976060;28;20958;-69
2021/12/23 16:16:21;;;;;;;23.20;13.93;;;6.60;99.90;;;;;;4975869;28;20443;-70
2021/12/23 16:18:48;;;;;;;17.60;13.33;;;6.60;99.90;;;;;;4977016;28;20443;-69
2021/12/23 16:21:15;;;;;;;19.37;13.10;;;6.60;99.90;;;;;;4976832;28;20475;-69
2021/12/23 16:23:42;;;;;;;21.33;13.83;;;6.50;99.90;;;;;;4977145;28;20459;-68
2021/12/23 16:26:08;;;;;;;16.70;12.37;;;6.50;99.90;;;;;;4978478;28;20550;-68
2021/12/23 16:28:36;;;;;;;17.70;12.73;;;6.50;99.90;;;;;;4976012;28;20455;-68
2021/12/23 16:31:05;;;;;;;14.23;12.20;;;6.40;99.90;;;;;;4975823;28;21009;-69
2021/12/23 16:33:32;;;;;;;14.47;11.20;;;6.40;99.90;;;;;;4976080;28;20457;-70
2021/12/23 16:35:59;;;;;;;17.93;12.57;;;6.40;99.90;;;;;;4976083;28;20435;-69
2021/12/23 16:38:26;;;;;;;19.93;14.33;;;6.40;99.90;;;;;;4976114;28;20478;-70
2021/12/23 16:40:54;;;;;;;19.63;13.07;;;6.40;99.90;;;;;;4975353;28;20486;-69
2021/12/23 16:43:25;;;;;;;17.00;12.33;;;6.40;99.90;;;;;;4975112;28;20513;-70
2021/12/23 16:45:52;;;;;;;16.50;12.40;;;6.50;99.90;;;;;;4976378;28;20446;-69
2021/12/23 16:48:20;;;;;;;13.00;11.47;;;6.50;99.90;;;;;;4976020;28;20459;-69
2021/12/23 16:50:48;;;;;;;15.27;11.77;;;6.60;99.90;;;;;;4976154;28;20487;-69
2021/12/23 16:53:16;;;;;;;14.37;10.97;;;6.60;99.90;;;;;;4976307;28;20818;-70
2021/12/23 16:56:01;;;;;;;13.10;10.83;;;6.60;99.90;;;;;;4976619;28;20536;-72
2021/12/23 16:58:28;;;;;;;14.50;11.47;;;6.50;99.90;;;;;;4976093;28;20494;-72
2021/12/23 17:00:57;;;;;;;12.00;10.60;;;6.60;99.90;;;;;;4975777;28;20483;-71
2021/12/23 17:03:25;;;;;;;15.53;10.37;;;6.60;99.90;;;;;;4977471;28;20462;-71
2021/12/23 17:05:52;;;;;;;13.20;10.47;;;6.60;99.90;;;;;;4976181;28;20455;-71
2021/12/23 17:08:21;;;;;;;12.10;10.17;;;6.60;99.90;;;;;;4977047;28;20463;-71
2021/12/23 17:10:48;;;;;;;11.47;9.43;;;6.70;99.90;;;;;;4976414;28;20490;-71
2021/12/23 17:13:16;;;;;;;14.57;10.10;;;6.70;99.90;;;;;;4976771;28;20462;-72
2021/12/23 17:15:43;;;;;;;11.13;9.87;;;6.80;99.90;;;;;;4976660;28;20961;-69
2021/12/23 17:18:21;;;;;;;14.43;8.73;;;6.80;99.90;;;;;;4975606;28;20439;-70
2021/12/23 17:23:35;;;;;;;12.80;9.57;;;6.80;99.90;;;;;;4975448;28;20426;-69
2021/12/23 17:26:02;;;;;;;13.67;9.37;;;6.80;99.90;;;;;;4975746;28;20459;-69
2021/12/23 17:28:29;;;;;;;13.80;9.40;;;6.90;99.90;;;;;;4977745;28;20454;-69
2021/12/23 17:30:57;;;;;;;14.03;9.10;;;6.90;99.90;;;;;;4979128;28;20486;-70
2021/12/23 17:33:25;;;;;;;10.90;9.30;;;6.90;99.90;;;;;;4979254;28;20463;-71
2021/12/23 17:35:54;;;;;;;10.27;8.53;;;7.00;99.90;;;;;;4979235;28;20455;-68
2021/12/23 17:38:21;;;;;;;9.50;8.40;;;7.00;99.90;;;;;;4978931;28;20484;-70
2021/12/23 17:40:49;;;;;;;10.13;9.13;;;7.00;99.90;;;;;;4980429;28;20475;-70
2021/12/23 17:43:17;;;;;;;12.60;9.70;;;7.10;99.90;;;;;;4979835;28;20446;-71
2021/12/23 17:45:47;;;;;;;12.10;9.83;;;7.00;99.90;;;;;;4979259;28;20502;-72
2021/12/23 17:48:15;;;;;;;14.73;9.30;;;7.00;99.90;;;;;;4979505;28;20443;-72
2021/12/23 17:50:42;;;;;;;12.87;9.60;;;7.00;99.90;;;;;;4979295;28;20482;-72
2021/12/23 17:53:11;;;;;;;12.60;10.60;;;7.00;99.90;;;;;;4979660;28;20459;-71
2021/12/23 17:55:39;;;;;;;14.40;9.57;;;7.00;99.90;;;;;;4980851;28;20957;-72
2021/12/23 17:58:08;;;;;;;15.20;9.30;;;7.10;99.90;;;;;;4985043;28;20458;-72
2021/12/23 18:00:35;;;;;;;11.87;10.27;;;7.10;99.90;;;;;;4980644;28;20473;-70
2021/12/23 18:03:02;;;;;;;13.03;9.70;;;7.10;99.90;;;;;;4979536;28;20435;-72
2021/12/23 18:05:29;;;;;;;10.50;8.90;;;7.10;99.90;;;;;;4979366;28;20513;-72
2021/12/23 18:07:56;;;;;;;10.47;9.37;;;7.10;99.90;;;;;;4980071;28;20816;-72
2021/12/23 18:10:24;;;;;;;12.70;8.67;;;7.10;99.90;;;;;;4978780;28;20467;-72
2021/12/23 18:12:51;;;;;;;14.00;9.10;;;7.20;99.90;;;;;;4979108;28;20860;-71
2021/12/23 18:15:18;;;;;;;10.73;8.03;;;7.20;99.90;;;;;;4979722;28;20444;-71
2021/12/23 18:17:44;;;;;;;17.37;11.10;;;7.20;99.90;;;;;;4979214;28;20531;-71
2021/12/23 18:20:12;;;;;;;14.77;13.30;;;7.30;99.90;;;;;;4979299;28;20894;-71
2021/12/23 18:22:39;;;;;;;10.07;8.97;;;7.30;99.90;;;;;;4979241;28;20483;-72
2021/12/23 18:25:08;;;;;;;12.67;8.93;;;7.40;99.90;;;;;;4978808;28;20460;-70
2021/12/23 18:27:37;;;;;;;10.03;8.60;;;7.40;99.90;;;;;;4978886;28;20459;-69
2021/12/23 18:30:06;;;;;;;11.23;8.23;;;7.40;99.90;;;;;;4979043;28;20888;-70
2021/12/23 18:32:33;;;;;;;8.53;7.47;;;7.50;99.90;;;;;;4978920;28;20475;-68
2021/12/23 18:35:01;;;;;;;9.30;8.00;;;7.50;99.90;;;;;;4978309;28;20462;-70
2021/12/23 18:37:28;;;;;;;11.03;8.03;;;7.90;99.90;;;;;;4978408;28;20455;-69
2021/12/23 18:39:56;;;;;;;10.80;7.90;;;8.10;99.90;;;;;;4978754;28;20513;-68
2021/12/23 18:42:27;;;;;;;8.50;7.00;;;8.30;99.90;;;;;;4978431;28;21054;-68
2021/12/23 18:44:56;;;;;;;8.10;7.30;;;8.40;99.90;;;;;;4979477;28;20506;-72
2021/12/23 18:47:23;;;;;;;8.30;7.30;;;8.50;99.90;;;;;;4978982;28;20843;-73
2021/12/23 18:49:50;;;;;;;8.50;7.60;;;8.50;99.90;;;;;;4979601;28;20802;-74
2021/12/23 18:52:17;;;;;;;13.67;7.93;;;8.50;99.90;;;;;;4979565;28;20986;-73